sensor_id;sensor_type;location;lat;lon;timestamp;pressure;altitude;pressure_sealevel;temperature;humidity
76847;BME280;65813;49.546;8.644;2024-03-17T04:45:09;101328.56;;;5.19;89.76
76847;BME280;65813;49.546;8.644;2024-03-17T04:49:10;101335.28;;;5.27;89.64
76847;BME280;65813;49.546;8.644;2024-03-17T04:53:10;101329.34;;;5.21;89.81
76847;BME280;65813;49.546;8.644;2024-03-17T04:57:10;101332.84;;;5.21;89.33
76847;BME280;65813;49.546;8.644;2024-03-17T05:01:11;101333.78;;;5.20;89.40
76847;BME280;65813;49.546;8.644;2024-03-17T05:05:12;101322.66;;;5.10;89.80
76847;BME280;65813;49.546;8.644;2024-03-17T05:09:13;101314.72;;;5.12;89.54
76847;BME280;65813;49.546;8.644;2024-03-17T05:13:16;101312.19;;;5.09;89.56
76847;BME280;65813;49.546;8.644;2024-03-17T05:17:16;101324.53;;;5.08;89.75
76847;BME280;65813;49.546;8.644;2024-03-17T05:21:16;101325.88;;;5.20;89.36
76847;BME280;65813;49.546;8.644;2024-03-17T05:25:17;101324.03;;;5.22;88.79
76847;BME280;65813;49.546;8.644;2024-03-17T05:29:17;101333.72;;;5.22;89.54
76847;BME280;65813;49.546;8.644;2024-03-17T05:33:18;101333.59;;;5.25;88.30
76847;BME280;65813;49.546;8.644;2024-03-17T05:37:19;101328.91;;;5.33;87.22
76847;BME280;65813;49.546;8.644;2024-03-17T05:41:19;101326.31;;;5.31;87.55
76847;BME280;65813;49.546;8.644;2024-03-17T05:45:20;101329.72;;;5.35;87.89
76847;BME280;65813;49.546;8.644;2024-03-17T05:49:20;101319.50;;;5.26;87.59
76847;BME280;65813;49.546;8.644;2024-03-17T05:53:22;101318.84;;;5.19;86.96
76847;BME280;65813;49.546;8.644;2024-03-17T05:57:24;101323.75;;;5.30;86.76
76847;BME280;65813;49.546;8.644;2024-03-17T06:01:24;101324.97;;;5.44;85.06
76847;BME280;65813;49.546;8.644;2024-03-17T06:05:24;101317.78;;;5.71;82.55
76847;BME280;65813;49.546;8.644;2024-03-17T06:09:25;101320.41;;;5.94;80.51
76847;BME280;65813;49.546;8.644;2024-03-17T06:13:29;101320.28;;;5.97;81.18
76847;BME280;65813;49.546;8.644;2024-03-17T06:17:29;101329.69;;;6.04;80.44
76847;BME280;65813;49.546;8.644;2024-03-17T06:21:30;101321.03;;;6.01;81.50
76847;BME280;65813;49.546;8.644;2024-03-17T06:25:30;101307.31;;;5.91;83.00
76847;BME280;65813;49.546;8.644;2024-03-17T06:29:34;101322.44;;;5.88;83.97
76847;BME280;65813;49.546;8.644;2024-03-17T06:33:34;101321.22;;;5.96;83.42
76847;BME280;65813;49.546;8.644;2024-03-17T06:37:35;101318.22;;;6.05;83.39
76847;BME280;65813;49.546;8.644;2024-03-17T06:41:35;101318.44;;;6.21;83.02
76847;BME280;65813;49.546;8.644;2024-03-17T06:45:35;101304.78;;;6.32;82.11
76847;BME280;65813;49.546;8.644;2024-03-17T06:49:36;101311.41;;;6.42;83.71
76847;BME280;65813;49.546;8.644;2024-03-17T06:53:36;101311.84;;;6.53;82.29
76847;BME280;65813;49.546;8.644;2024-03-17T06:57:36;101306.03;;;6.65;81.56
76847;BME280;65813;49.546;8.644;2024-03-17T07:01:37;101304.38;;;6.63;82.25
76847;BME280;65813;49.546;8.644;2024-03-17T07:05:37;101304.72;;;6.75;80.42
76847;BME280;65813;49.546;8.644;2024-03-17T07:09:38;101291.22;;;6.81;80.56
76847;BME280;65813;49.546;8.644;2024-03-17T07:13:39;101293.38;;;7.12;80.17
76847;BME280;65813;49.546;8.644;2024-03-17T07:17:41;101299.34;;;7.36;79.76
76847;BME280;65813;49.546;8.644;2024-03-17T07:21:41;101300.72;;;7.63;78.59
76847;BME280;65813;49.546;8.644;2024-03-17T07:25:42;101300.59;;;7.66;79.19
76847;BME280;65813;49.546;8.644;2024-03-17T07:29:42;101303.09;;;7.69;78.25
76847;BME280;65813;49.546;8.644;2024-03-17T07:33:43;101303.16;;;7.86;79.03
76847;BME280;65813;49.546;8.644;2024-03-17T07:37:43;101301.00;;;7.94;78.92
76847;BME280;65813;49.546;8.644;2024-03-17T07:41:43;101301.63;;;7.82;78.92
76847;BME280;65813;49.546;8.644;2024-03-17T07:45:44;101296.56;;;7.76;78.49
76847;BME280;65813;49.546;8.644;2024-03-17T07:49:46;101288.81;;;7.90;79.23
76847;BME280;65813;49.546;8.644;2024-03-17T07:53:47;101273.13;;;8.40;76.81
76847;BME280;65813;49.546;8.644;2024-03-17T07:57:48;101282.00;;;8.91;73.57
76847;BME280;65813;49.546;8.644;2024-03-17T08:01:48;101285.03;;;9.00;73.08
76847;BME280;65813;49.546;8.644;2024-03-17T08:05:49;101285.03;;;9.00;73.82
76847;BME280;65813;49.546;8.644;2024-03-17T08:09:49;101292.38;;;9.12;74.62
76847;BME280;65813;49.546;8.644;2024-03-17T08:13:50;101310.66;;;9.19;75.50
76847;BME280;65813;49.546;8.644;2024-03-17T08:17:50;101314.75;;;8.91;76.09
76847;BME280;65813;49.546;8.644;2024-03-17T08:21:50;101312.44;;;8.85;77.76
76847;BME280;65813;49.546;8.644;2024-03-17T08:25:58;101311.41;;;8.53;77.32
76847;BME280;65813;49.546;8.644;2024-03-17T08:29:58;101307.81;;;8.89;76.28
76847;BME280;65813;49.546;8.644;2024-03-17T08:33:59;101303.56;;;9.02;76.63
76847;BME280;65813;49.546;8.644;2024-03-17T08:37:59;101307.25;;;9.17;74.28
76847;BME280;65813;49.546;8.644;2024-03-17T08:42:00;101295.47;;;9.21;74.05
76847;BME280;65813;49.546;8.644;2024-03-17T08:50:03;101277.84;;;9.20;75.16
76847;BME280;65813;49.546;8.644;2024-03-17T08:54:04;101274.16;;;9.38;74.50
76847;BME280;65813;49.546;8.644;2024-03-17T08:58:04;101274.06;;;9.24;75.19
76847;BME280;65813;49.546;8.644;2024-03-17T09:02:05;101289.84;;;9.27;75.46
76847;BME280;65813;49.546;8.644;2024-03-17T09:06:16;101288.31;;;9.38;75.94
76847;BME280;65813;49.546;8.644;2024-03-17T09:10:16;101278.66;;;9.53;73.96
76847;BME280;65813;49.546;8.644;2024-03-17T09:14:17;101285.88;;;9.51;74.84
76847;BME280;65813;49.546;8.644;2024-03-17T09:18:17;101286.53;;;9.39;75.38
76847;BME280;65813;49.546;8.644;2024-03-17T09:22:17;101275.47;;;9.46;74.37
76847;BME280;65813;49.546;8.644;2024-03-17T09:26:18;101275.06;;;9.70;73.89
76847;BME280;65813;49.546;8.644;2024-03-17T09:30:18;101259.38;;;9.65;75.51
76847;BME280;65813;49.546;8.644;2024-03-17T09:34:19;101258.59;;;9.47;75.69
76847;BME280;65813;49.546;8.644;2024-03-17T09:38:19;101256.97;;;9.76;76.70
76847;BME280;65813;49.546;8.644;2024-03-17T09:42:19;101263.75;;;9.50;77.01
76847;BME280;65813;49.546;8.644;2024-03-17T09:46:20;101263.41;;;9.72;77.94
76847;BME280;65813;49.546;8.644;2024-03-17T09:50:23;101262.81;;;9.67;77.32
76847;BME280;65813;49.546;8.644;2024-03-17T09:54:24;101254.66;;;9.86;77.52
76847;BME280;65813;49.546;8.644;2024-03-17T09:58:24;101254.31;;;10.23;76.92
76847;BME280;65813;49.546;8.644;2024-03-17T10:02:25;101268.38;;;9.94;76.58
76847;BME280;65813;49.546;8.644;2024-03-17T10:06:26;101266.47;;;10.11;79.69
76847;BME280;65813;49.546;8.644;2024-03-17T10:10:29;101260.50;;;10.24;75.54
76847;BME280;65813;49.546;8.644;2024-03-17T10:14:29;101264.09;;;10.52;74.73
76847;BME280;65813;49.546;8.644;2024-03-17T10:18:29;101268.25;;;10.42;73.74
76847;BME280;65813;49.546;8.644;2024-03-17T10:22:30;101251.03;;;10.78;73.62
76847;BME280;65813;49.546;8.644;2024-03-17T10:26:30;101254.38;;;11.66;71.79
76847;BME280;65813;49.546;8.644;2024-03-17T10:30:30;101252.88;;;11.05;73.18
76847;BME280;65813;49.546;8.644;2024-03-17T10:34:31;101263.16;;;11.11;72.67
76847;BME280;65813;49.546;8.644;2024-03-17T10:38:35;101252.00;;;10.91;73.36
76847;BME280;65813;49.546;8.644;2024-03-17T10:42:35;101258.03;;;11.08;72.71
76847;BME280;65813;49.546;8.644;2024-03-17T10:46:37;101255.25;;;11.38;72.39
76847;BME280;65813;49.546;8.644;2024-03-17T10:50:39;101246.31;;;11.94;68.67
76847;BME280;65813;49.546;8.644;2024-03-17T10:54:40;101247.75;;;12.27;67.68
76847;BME280;65813;49.546;8.644;2024-03-17T10:58:48;101242.91;;;11.92;68.84
76847;BME280;65813;49.546;8.644;2024-03-17T11:02:53;101232.31;;;12.18;68.93
76847;BME280;65813;49.546;8.644;2024-03-17T11:06:56;101228.25;;;12.64;71.42
76847;BME280;65813;49.546;8.644;2024-03-17T11:10:58;101222.72;;;12.28;71.18
76847;BME280;65813;49.546;8.644;2024-03-17T11:19:33;101210.19;;;12.68;66.35
76847;BME280;65813;49.546;8.644;2024-03-17T11:23:34;101210.50;;;12.63;67.75
76847;BME280;65813;49.546;8.644;2024-03-17T11:27:40;101207.41;;;12.56;68.69
76847;BME280;65813;49.546;8.644;2024-03-17T11:31:44;101207.59;;;12.01;69.28
76847;BME280;65813;49.546;8.644;2024-03-17T11:35:46;101207.34;;;12.31;68.82
76847;BME280;65813;49.546;8.644;2024-03-17T11:39:54;101196.22;;;12.25;70.38
76847;BME280;65813;49.546;8.644;2024-03-17T11:44:24;101202.00;;;12.31;68.40
76847;BME280;65813;49.546;8.644;2024-03-17T11:48:26;101192.34;;;12.68;66.94
76847;BME280;65813;49.546;8.644;2024-03-17T11:52:27;101191.16;;;12.59;67.59
76847;BME280;65813;49.546;8.644;2024-03-17T11:56:28;101196.19;;;12.64;65.02
76847;BME280;65813;49.546;8.644;2024-03-17T12:00:30;101197.88;;;12.52;65.51
76847;BME280;65813;49.546;8.644;2024-03-17T12:04:30;101195.19;;;12.40;68.21
76847;BME280;65813;49.546;8.644;2024-03-17T12:08:30;101198.00;;;12.51;66.66
76847;BME280;65813;49.546;8.644;2024-03-17T12:12:31;101186.50;;;12.24;66.14
76847;BME280;65813;49.546;8.644;2024-03-17T12:16:35;101194.91;;;12.57;65.96
76847;BME280;65813;49.546;8.644;2024-03-17T12:20:37;101189.44;;;12.58;63.47
76847;BME280;65813;49.546;8.644;2024-03-17T12:24:38;101190.31;;;12.72;63.38
76847;BME280;65813;49.546;8.644;2024-03-17T12:28:38;101187.63;;;12.59;65.18
76847;BME280;65813;49.546;8.644;2024-03-17T12:32:38;101177.34;;;12.53;66.14
76847;BME280;65813;49.546;8.644;2024-03-17T12:36:40;101179.28;;;12.51;66.71
76847;BME280;65813;49.546;8.644;2024-03-17T12:40:41;101173.09;;;12.50;63.89
76847;BME280;65813;49.546;8.644;2024-03-17T12:48:58;101160.44;;;12.27;65.24
76847;BME280;65813;49.546;8.644;2024-03-17T12:52:58;101144.50;;;12.38;65.29
76847;BME280;65813;49.546;8.644;2024-03-17T12:57:06;101157.22;;;12.35;66.49
76847;BME280;65813;49.546;8.644;2024-03-17T13:01:25;101143.03;;;12.47;63.48
76847;BME280;65813;49.546;8.644;2024-03-17T13:05:26;101143.91;;;12.60;65.00
76847;BME280;65813;49.546;8.644;2024-03-17T13:09:26;101146.56;;;12.60;66.05
76847;BME280;65813;49.546;8.644;2024-03-17T13:13:29;101135.97;;;12.46;66.55
76847;BME280;65813;49.546;8.644;2024-03-17T13:17:30;101133.19;;;12.35;66.34
76847;BME280;65813;49.546;8.644;2024-03-17T13:21:33;101118.22;;;12.45;64.99
76847;BME280;65813;49.546;8.644;2024-03-17T13:25:34;101113.22;;;12.53;64.75
76847;BME280;65813;49.546;8.644;2024-03-17T13:29:36;101113.84;;;12.44;65.46
76847;BME280;65813;49.546;8.644;2024-03-17T13:33:37;101111.84;;;12.47;65.13
76847;BME280;65813;49.546;8.644;2024-03-17T13:37:38;101102.22;;;12.57;64.81
76847;BME280;65813;49.546;8.644;2024-03-17T13:41:38;101097.50;;;12.61;66.35
76847;BME280;65813;49.546;8.644;2024-03-17T13:45:42;101091.81;;;12.65;65.09
76847;BME280;65813;49.546;8.644;2024-03-17T13:49:47;101078.78;;;12.61;66.23
76847;BME280;65813;49.546;8.644;2024-03-17T13:53:48;101076.63;;;12.66;64.67
76847;BME280;65813;49.546;8.644;2024-03-17T13:57:50;101074.84;;;12.54;66.58
76847;BME280;65813;49.546;8.644;2024-03-17T14:01:59;101065.31;;;12.50;67.03
76847;BME280;65813;49.546;8.644;2024-03-17T14:06:00;101068.63;;;12.53;65.76
76847;BME280;65813;49.546;8.644;2024-03-17T14:10:01;101071.31;;;12.53;67.80
76847;BME280;65813;49.546;8.644;2024-03-17T14:14:02;101059.00;;;12.63;67.37
76847;BME280;65813;49.546;8.644;2024-03-17T14:18:02;101059.19;;;12.73;67.98
76847;BME280;65813;49.546;8.644;2024-03-17T14:22:03;101056.53;;;12.73;67.11
76847;BME280;65813;49.546;8.644;2024-03-17T14:26:03;101048.31;;;12.63;66.98
76847;BME280;65813;49.546;8.644;2024-03-17T14:30:04;101037.50;;;12.78;65.73
76847;BME280;65813;49.546;8.644;2024-03-17T14:34:05;101042.28;;;12.85;64.91
76847;BME280;65813;49.546;8.644;2024-03-17T14:38:06;101060.81;;;12.63;66.81
76847;BME280;65813;49.546;8.644;2024-03-17T14:42:07;101060.78;;;12.76;67.47
76847;BME280;65813;49.546;8.644;2024-03-17T14:46:07;101052.06;;;12.97;66.94
76847;BME280;65813;49.546;8.644;2024-03-17T14:50:11;101048.94;;;13.03;64.96
76847;BME280;65813;49.546;8.644;2024-03-17T14:54:12;101033.13;;;13.00;64.15
76847;BME280;65813;49.546;8.644;2024-03-17T14:58:13;101029.16;;;13.19;64.11
76847;BME280;65813;49.546;8.644;2024-03-17T15:02:13;101019.41;;;13.18;64.99
76847;BME280;65813;49.546;8.644;2024-03-17T15:06:14;101012.41;;;13.28;63.75
76847;BME280;65813;49.546;8.644;2024-03-17T15:10:15;101017.72;;;13.40;63.18
76847;BME280;65813;49.546;8.644;2024-03-17T15:14:18;101009.03;;;13.60;64.87
76847;BME280;65813;49.546;8.644;2024-03-17T15:18:18;101005.63;;;13.70;63.80
76847;BME280;65813;49.546;8.644;2024-03-17T15:22:18;101014.28;;;13.73;62.04
76847;BME280;65813;49.546;8.644;2024-03-17T15:26:21;101010.69;;;13.85;63.48
76847;BME280;65813;49.546;8.644;2024-03-17T15:30:22;101006.09;;;13.98;62.08
76847;BME280;65813;49.546;8.644;2024-03-17T15:34:26;101007.25;;;13.72;62.01
76847;BME280;65813;49.546;8.644;2024-03-17T15:38:28;101006.91;;;13.53;63.36
76847;BME280;65813;49.546;8.644;2024-03-17T15:42:28;100995.97;;;13.56;60.47
76847;BME280;65813;49.546;8.644;2024-03-17T15:46:28;100999.59;;;13.44;63.40
76847;BME280;65813;49.546;8.644;2024-03-17T15:50:29;100988.44;;;13.26;61.90
76847;BME280;65813;49.546;8.644;2024-03-17T15:54:31;100977.84;;;13.25;64.07
76847;BME280;65813;49.546;8.644;2024-03-17T15:58:31;100987.19;;;13.19;63.24
76847;BME280;65813;49.546;8.644;2024-03-17T16:02:32;100981.56;;;13.11;63.40
76847;BME280;65813;49.546;8.644;2024-03-17T16:06:32;100978.44;;;13.04;64.72
76847;BME280;65813;49.546;8.644;2024-03-17T16:10:33;100976.53;;;13.06;63.77
76847;BME280;65813;49.546;8.644;2024-03-17T16:14:35;100974.06;;;13.03;64.11
76847;BME280;65813;49.546;8.644;2024-03-17T16:18:41;100970.25;;;12.95;63.94
76847;BME280;65813;49.546;8.644;2024-03-17T16:22:41;100964.91;;;12.95;64.05
76847;BME280;65813;49.546;8.644;2024-03-17T16:26:42;100960.97;;;12.88;63.82
76847;BME280;65813;49.546;8.644;2024-03-17T16:30:43;100954.03;;;12.85;65.52
76847;BME280;65813;49.546;8.644;2024-03-17T16:34:43;100966.66;;;12.83;64.37
76847;BME280;65813;49.546;8.644;2024-03-17T16:38:43;100952.00;;;12.89;62.86
76847;BME280;65813;49.546;8.644;2024-03-17T16:42:45;100947.22;;;12.81;63.33
76847;BME280;65813;49.546;8.644;2024-03-17T16:50:51;100945.41;;;12.69;64.41
76847;BME280;65813;49.546;8.644;2024-03-17T16:54:53;100945.88;;;12.63;65.52
76847;BME280;65813;49.546;8.644;2024-03-17T16:58:53;100951.22;;;12.63;65.83
76847;BME280;65813;49.546;8.644;2024-03-17T17:02:53;100957.03;;;12.57;65.58
76847;BME280;65813;49.546;8.644;2024-03-17T17:06:54;100956.25;;;12.55;65.73
76847;BME280;65813;49.546;8.644;2024-03-17T17:10:56;100956.25;;;12.55;66.26
76847;BME280;65813;49.546;8.644;2024-03-17T17:14:56;100944.34;;;12.48;66.81
76847;BME280;65813;49.546;8.644;2024-03-17T17:19:04;100949.69;;;12.48;67.67
76847;BME280;65813;49.546;8.644;2024-03-17T17:23:05;100958.66;;;12.47;70.60
76847;BME280;65813;49.546;8.644;2024-03-17T17:27:06;100958.66;;;12.34;71.21
76847;BME280;65813;49.546;8.644;2024-03-17T17:31:11;100946.50;;;12.30;71.28
76847;BME280;65813;49.546;8.644;2024-03-17T17:35:12;100953.88;;;12.27;70.20
76847;BME280;65813;49.546;8.644;2024-03-17T17:39:12;100949.47;;;12.38;68.39
76847;BME280;65813;49.546;8.644;2024-03-17T17:43:14;100939.84;;;12.36;68.74
76847;BME280;65813;49.546;8.644;2024-03-17T17:47:14;100937.09;;;12.25;68.69
76847;BME280;65813;49.546;8.644;2024-03-17T17:51:17;100933.91;;;12.20;68.52
76847;BME280;65813;49.546;8.644;2024-03-17T17:55:18;100925.59;;;12.11;69.10
76847;BME280;65813;49.546;8.644;2024-03-17T17:59:18;100940.88;;;12.09;68.68
76847;BME280;65813;49.546;8.644;2024-03-17T18:03:19;100937.44;;;12.20;68.98
76847;BME280;65813;49.546;8.644;2024-03-17T18:07:19;100935.13;;;12.03;69.41
76847;BME280;65813;49.546;8.644;2024-03-17T18:11:20;100940.47;;;12.03;69.53
76847;BME280;65813;49.546;8.644;2024-03-17T18:15:21;100934.59;;;11.85;70.82
76847;BME280;65813;49.546;8.644;2024-03-17T18:19:21;100931.69;;;11.76;70.26
76847;BME280;65813;49.546;8.644;2024-03-17T18:23:22;100934.59;;;11.85;70.67
76847;BME280;65813;49.546;8.644;2024-03-17T18:27:23;100941.25;;;11.65;71.25
76847;BME280;65813;49.546;8.644;2024-03-17T18:31:24;100949.38;;;11.64;71.85
76847;BME280;65813;49.546;8.644;2024-03-17T18:35:24;100944.66;;;11.55;72.44
76847;BME280;65813;49.546;8.644;2024-03-17T18:39:25;100942.84;;;11.55;71.76
76847;BME280;65813;49.546;8.644;2024-03-17T18:43:26;100945.84;;;11.51;72.13
76847;BME280;65813;49.546;8.644;2024-03-17T18:47:27;100955.97;;;11.46;73.11
76847;BME280;65813;49.546;8.644;2024-03-17T18:51:27;100945.63;;;11.54;72.40
76847;BME280;65813;49.546;8.644;2024-03-17T18:55:27;100951.56;;;11.45;73.57
76847;BME280;65813;49.546;8.644;2024-03-17T18:59:28;100948.91;;;11.32;74.21
76847;BME280;65813;49.546;8.644;2024-03-17T19:03:29;100941.09;;;11.17;74.84
76847;BME280;65813;49.546;8.644;2024-03-17T19:07:30;100942.91;;;11.29;74.49
76847;BME280;65813;49.546;8.644;2024-03-17T19:11:32;100961.78;;;11.26;74.91
76847;BME280;65813;49.546;8.644;2024-03-17T19:15:32;100958.09;;;11.01;76.09
76847;BME280;65813;49.546;8.644;2024-03-17T19:19:33;100947.50;;;11.00;76.00
76847;BME280;65813;49.546;8.644;2024-03-17T19:23:34;100951.38;;;10.96;76.61
76847;BME280;65813;49.546;8.644;2024-03-17T19:27:36;100943.56;;;10.93;76.63
76847;BME280;65813;49.546;8.644;2024-03-17T19:31:37;100933.00;;;10.91;76.26
76847;BME280;65813;49.546;8.644;2024-03-17T19:35:37;100930.25;;;10.93;76.34
76847;BME280;65813;49.546;8.644;2024-03-17T19:39:38;100924.63;;;10.83;76.91
76847;BME280;65813;49.546;8.644;2024-03-17T19:43:39;100928.06;;;10.85;76.39
76847;BME280;65813;49.546;8.644;2024-03-17T19:47:44;100919.50;;;10.80;76.61
76847;BME280;65813;49.546;8.644;2024-03-17T19:51:44;100916.84;;;10.80;76.99
76847;BME280;65813;49.546;8.644;2024-03-17T19:55:48;100916.81;;;10.68;77.52
76847;BME280;65813;49.546;8.644;2024-03-17T19:59:51;100910.06;;;10.62;77.19
76847;BME280;65813;49.546;8.644;2024-03-17T20:03:51;100917.22;;;10.61;77.62
76847;BME280;65813;49.546;8.644;2024-03-17T20:07:52;100904.72;;;10.62;77.37
76847;BME280;65813;49.546;8.644;2024-03-17T20:11:53;100906.34;;;10.64;77.33
76847;BME280;65813;49.546;8.644;2024-03-17T20:15:54;100904.72;;;10.62;76.90
76847;BME280;65813;49.546;8.644;2024-03-17T20:19:55;100906.72;;;10.58;76.71
76847;BME280;65813;49.546;8.644;2024-03-17T20:23:55;100900.00;;;10.53;77.45
76847;BME280;65813;49.546;8.644;2024-03-17T20:27:59;100893.16;;;10.49;77.84
76847;BME280;65813;49.546;8.644;2024-03-17T20:32:01;100899.75;;;10.43;78.05
76847;BME280;65813;49.546;8.644;2024-03-17T20:36:03;100903.84;;;10.35;78.83
76847;BME280;65813;49.546;8.644;2024-03-17T20:40:04;100898.53;;;10.35;78.89
76847;BME280;65813;49.546;8.644;2024-03-17T20:44:07;100890.94;;;10.29;79.32
76847;BME280;65813;49.546;8.644;2024-03-17T20:48:07;100891.41;;;10.35;79.51
76847;BME280;65813;49.546;8.644;2024-03-17T20:52:08;100898.91;;;10.43;80.62
76847;BME280;65813;49.546;8.644;2024-03-17T20:56:08;100900.63;;;10.44;81.07
76847;BME280;65813;49.546;8.644;2024-03-17T21:00:10;100905.75;;;10.47;80.89
76847;BME280;65813;49.546;8.644;2024-03-17T21:04:25;100896.50;;;10.38;79.88
76847;BME280;65813;49.546;8.644;2024-03-17T21:08:26;100898.25;;;10.39;80.12
76847;BME280;65813;49.546;8.644;2024-03-17T21:12:26;100897.19;;;10.42;81.25
76847;BME280;65813;49.546;8.644;2024-03-17T21:16:27;100891.97;;;10.40;80.71
76847;BME280;65813;49.546;8.644;2024-03-17T21:20:27;100885.22;;;10.35;79.17
76847;BME280;65813;49.546;8.644;2024-03-17T21:24:28;100881.81;;;10.33;79.44
76847;BME280;65813;49.546;8.644;2024-03-17T21:28:28;100876.88;;;10.27;80.03
76847;BME280;65813;49.546;8.644;2024-03-17T21:32:29;100873.91;;;10.31;79.88
76847;BME280;65813;49.546;8.644;2024-03-17T21:36:30;100863.25;;;10.31;78.53
76847;BME280;65813;49.546;8.644;2024-03-17T21:40:32;100857.59;;;10.23;79.52
76847;BME280;65813;49.546;8.644;2024-03-17T21:44:32;100857.94;;;10.17;79.13
76847;BME280;65813;49.546;8.644;2024-03-17T21:48:33;100843.91;;;10.15;79.87
76847;BME280;65813;49.546;8.644;2024-03-17T21:52:33;100848.38;;;10.14;79.64
76847;BME280;65813;49.546;8.644;2024-03-17T21:56:33;100835.13;;;10.13;79.86
76847;BME280;65813;49.546;8.644;2024-03-17T22:00:33;100827.63;;;10.20;79.76
76847;BME280;65813;49.546;8.644;2024-03-17T22:04:34;100821.75;;;10.14;80.04
76847;BME280;65813;49.546;8.644;2024-03-17T22:08:34;100823.53;;;10.14;81.11
76847;BME280;65813;49.546;8.644;2024-03-17T22:12:35;100818.88;;;10.18;79.71
76847;BME280;65813;49.546;8.644;2024-03-17T22:16:36;100815.28;;;10.19;79.27
